createdAt,value
2018-10-11T00:00:54.556Z,71.80
2018-10-11T00:03:22.629Z,71.70
2018-10-11T00:05:50.122Z,71.90
2018-10-11T00:08:17.612Z,71.60
2018-10-11T00:10:45.188Z,71.30
2018-10-11T00:13:12.708Z,71.60
2018-10-11T00:15:47.732Z,71.60
2018-10-11T00:18:22.529Z,71.70
2018-10-11T00:20:57.212Z,72.10
2018-10-11T00:23:31.960Z,71.60
2018-10-11T00:26:06.652Z,71.70
2018-10-11T00:28:41.711Z,71.70
2018-10-11T00:31:16.685Z,72.10
2018-10-11T00:33:51.700Z,71.60
2018-10-11T00:36:26.563Z,71.70
2018-10-11T00:39:01.187Z,71.80
2018-10-11T00:41:36.246Z,71.70
2018-10-11T00:44:11.185Z,71.80
2018-10-11T00:46:38.652Z,71.90
2018-10-11T00:49:06.150Z,71.70
2018-10-11T00:51:33.663Z,72.10
2018-10-11T00:54:01.210Z,72.10
2018-10-11T00:56:28.718Z,72.10
2018-10-11T00:58:56.208Z,72.40
2018-10-11T01:01:23.688Z,72.40
2018-10-11T01:03:51.163Z,72.30
2018-10-11T01:06:18.673Z,72.20
2018-10-11T01:08:46.172Z,72.50
2018-10-11T01:11:13.668Z,73.00
2018-10-11T01:13:41.171Z,72.20
2018-10-11T01:16:08.682Z,72.30
2018-10-11T01:18:36.249Z,72.30
2018-10-11T01:21:03.720Z,72.10
2018-10-11T01:23:31.211Z,72.20
2018-10-11T01:25:58.723Z,72.50
2018-10-11T01:28:26.279Z,72.10
2018-10-11T01:30:59.578Z,72.30
2018-10-11T01:33:27.066Z,72.10
2018-10-11T01:35:54.627Z,72.50
2018-10-11T01:38:22.110Z,73.40
2018-10-11T01:40:49.607Z,72.50
2018-10-11T01:43:17.087Z,72.50
2018-10-11T01:45:44.574Z,73.40
2018-10-11T01:48:12.096Z,73.40
2018-10-11T01:50:39.579Z,73.00
2018-10-11T01:53:07.082Z,72.90
2018-10-11T01:55:34.576Z,73.30
2018-10-11T01:58:02.148Z,73.40
2018-10-11T02:00:29.680Z,73.20
2018-10-11T02:02:58.260Z,73.10
2018-10-11T02:05:26.414Z,73.60
2018-10-11T02:07:54.592Z,73.30
2018-10-11T02:10:22.084Z,73.60
2018-10-11T02:12:49.567Z,73.10
2018-10-11T02:15:17.195Z,73.30
2018-10-11T02:17:44.676Z,73.30
2018-10-11T02:20:12.162Z,73.30
2018-10-11T02:22:39.851Z,73.50
2018-10-11T02:25:07.400Z,73.90
2018-10-11T02:27:34.923Z,74.00
2018-10-11T02:30:02.455Z,73.30
2018-10-11T02:32:29.955Z,73.60
2018-10-11T02:34:57.714Z,73.80
2018-10-11T02:37:25.287Z,73.70
2018-10-11T02:39:52.871Z,73.40
2018-10-11T02:42:20.359Z,74.10
2018-10-11T02:44:47.868Z,73.90
2018-10-11T02:47:15.369Z,74.00
2018-10-11T02:49:43.055Z,74.30
2018-10-11T02:52:11.051Z,74.50
2018-10-11T02:54:38.612Z,74.20
2018-10-11T02:57:16.229Z,74.10
2018-10-11T02:59:43.759Z,74.20
2018-10-11T03:02:12.701Z,74.00
2018-10-11T03:04:40.685Z,74.10
2018-10-11T03:07:09.092Z,74.40
2018-10-11T03:09:36.579Z,74.10
2018-10-11T03:12:04.158Z,73.80
2018-10-11T03:14:31.638Z,74.40
2018-10-11T03:16:59.187Z,74.10
2018-10-11T03:19:26.671Z,74.40
2018-10-11T03:21:54.157Z,74.90
2018-10-11T03:24:21.744Z,74.70
2018-10-11T03:26:49.212Z,74.90
2018-10-11T03:29:16.734Z,75.10
2018-10-11T03:31:44.240Z,75.60
2018-10-11T03:34:11.839Z,75.00
2018-10-11T03:36:39.360Z,74.50
2018-10-11T03:39:06.970Z,75.10
2018-10-11T03:41:34.495Z,74.60
2018-10-11T03:44:02.000Z,75.10
2018-10-11T03:46:29.529Z,75.00
2018-10-11T03:48:56.990Z,75.60
2018-10-11T03:51:24.463Z,75.60
2018-10-11T03:53:51.982Z,75.10
2018-10-11T03:56:19.463Z,74.90
2018-10-11T03:58:46.978Z,74.80
2018-10-11T04:01:14.502Z,74.90
2018-10-11T04:03:42.006Z,74.70
2018-10-11T04:06:09.498Z,75.00
2018-10-11T04:08:37.023Z,75.30
2018-10-11T04:11:04.534Z,74.50
2018-10-11T04:13:32.035Z,74.60
2018-10-11T04:15:59.560Z,75.10
2018-10-11T04:18:27.042Z,75.60
2018-10-11T04:20:54.544Z,75.20
2018-10-11T04:23:30.499Z,75.70
2018-10-11T04:25:58.716Z,74.90
2018-10-11T04:28:27.327Z,75.10
2018-10-11T04:30:55.462Z,74.90
2018-10-11T04:33:22.984Z,75.00
2018-10-11T04:35:50.480Z,74.90
2018-10-11T04:38:17.980Z,75.10
2018-10-11T04:40:45.475Z,74.90
2018-10-11T04:43:13.427Z,75.30
2018-10-11T04:45:41.874Z,74.70
2018-10-11T04:48:09.620Z,75.50
2018-10-11T04:50:37.279Z,75.10
2018-10-11T04:53:04.776Z,75.00
2018-10-11T04:55:32.260Z,75.20
2018-10-11T04:57:59.851Z,75.50
2018-10-11T05:00:27.943Z,75.50
2018-10-11T05:02:55.507Z,75.70
2018-10-11T05:05:23.028Z,75.30
2018-10-11T05:07:50.536Z,76.00
2018-10-11T05:10:18.147Z,75.40
2018-10-11T05:12:45.667Z,75.10
2018-10-11T05:15:13.168Z,76.50
2018-10-11T05:17:41.073Z,76.50
2018-10-11T05:20:08.652Z,76.30
2018-10-11T05:22:36.156Z,75.60
2018-10-11T05:25:03.673Z,75.90
2018-10-11T05:27:31.159Z,76.60
2018-10-11T05:29:58.672Z,76.40
2018-10-11T05:32:26.267Z,76.20
2018-10-11T05:34:53.807Z,75.80
2018-10-11T05:37:21.400Z,75.90
2018-10-11T05:39:48.912Z,75.80
2018-10-11T05:42:16.415Z,75.80
2018-10-11T05:44:44.327Z,75.70
2018-10-11T05:47:11.846Z,76.00
2018-10-11T05:49:39.423Z,75.70
2018-10-11T05:52:06.971Z,75.70
2018-10-11T05:54:34.487Z,75.10
2018-10-11T05:57:01.993Z,75.10
2018-10-11T05:59:29.511Z,74.90
2018-10-11T06:01:57.032Z,75.50
2018-10-11T06:04:24.544Z,74.40
2018-10-11T06:06:52.040Z,74.30
2018-10-11T06:09:19.627Z,74.20
2018-10-11T06:11:47.130Z,74.10
2018-10-11T06:14:15.031Z,73.90
2018-10-11T06:16:42.860Z,73.90
2018-10-11T06:19:12.110Z,73.80
2018-10-11T06:21:39.616Z,73.60
2018-10-11T06:24:07.159Z,73.60
2018-10-11T06:26:34.670Z,73.50
2018-10-11T06:29:02.175Z,73.50
2018-10-11T06:31:29.729Z,73.40
2018-10-11T06:33:57.227Z,73.40
2018-10-11T06:36:25.077Z,73.30
2018-10-11T06:38:52.943Z,74.20
2018-10-11T06:41:20.446Z,73.40
2018-10-11T06:43:47.951Z,73.50
2018-10-11T06:46:15.468Z,73.30
2018-10-11T06:48:42.967Z,73.40
2018-10-11T06:51:10.479Z,73.40
2018-10-11T06:53:38.328Z,73.10
2018-10-11T06:56:06.023Z,73.20
2018-10-11T06:58:33.500Z,73.40
2018-10-11T07:01:01.040Z,73.10
2018-10-11T07:03:28.568Z,72.90
2018-10-11T07:05:56.055Z,72.90
2018-10-11T07:08:23.551Z,73.00
2018-10-11T07:10:51.052Z,72.80
2018-10-11T07:13:18.544Z,72.50
2018-10-11T07:15:46.056Z,72.80
2018-10-11T07:18:13.535Z,72.80
2018-10-11T07:20:41.031Z,72.80
2018-10-11T07:23:08.783Z,72.80
2018-10-11T07:25:36.276Z,73.00
2018-10-11T07:28:03.810Z,72.90
2018-10-11T07:30:31.339Z,73.10
2018-10-11T07:32:58.818Z,73.20
2018-10-11T07:35:26.571Z,73.40
2018-10-11T07:37:53.900Z,73.20
2018-10-11T07:40:21.431Z,73.20
2018-10-11T07:42:48.914Z,73.60
2018-10-11T07:45:16.428Z,73.40
2018-10-11T07:47:43.968Z,73.40
2018-10-11T07:50:11.479Z,73.80
2018-10-11T07:52:39.054Z,74.30
2018-10-11T07:55:06.524Z,74.20
2018-10-11T07:57:34.035Z,74.20
2018-10-11T08:00:01.560Z,74.40
2018-10-11T08:02:29.047Z,74.40
2018-10-11T08:04:56.530Z,75.30
2018-10-11T08:07:24.110Z,75.40
2018-10-11T08:09:51.831Z,75.40
2018-10-11T08:12:19.348Z,75.60
2018-10-11T08:14:46.847Z,76.30
2018-10-11T08:17:14.703Z,76.10
2018-10-11T08:19:41.898Z,76.30
2018-10-11T08:22:09.598Z,76.10
2018-10-11T08:24:37.157Z,76.70
2018-10-11T08:27:04.778Z,75.90
2018-10-11T08:29:32.250Z,76.90
2018-10-11T08:31:59.746Z,76.60
2018-10-11T08:34:27.227Z,76.60
2018-10-11T08:36:54.743Z,77.20
2018-10-11T08:39:22.235Z,76.40
2018-10-11T08:41:49.728Z,76.60
2018-10-11T08:44:17.274Z,77.50
2018-10-11T08:46:44.827Z,79.30
2018-10-11T08:49:12.427Z,78.10
2018-10-11T08:51:39.831Z,78.20
2018-10-11T08:54:13.152Z,78.60
2018-10-11T08:56:40.720Z,78.10
2018-10-11T08:59:08.219Z,78.70
2018-10-11T09:01:35.731Z,78.70
2018-10-11T09:04:03.357Z,78.10
2018-10-11T09:06:30.708Z,77.70
2018-10-11T09:08:58.199Z,78.00
2018-10-11T09:11:25.772Z,79.20
2018-10-11T09:13:53.196Z,78.20
2018-10-11T09:16:20.686Z,78.40
2018-10-11T09:18:48.186Z,78.60
2018-10-11T09:21:15.840Z,78.70
2018-10-11T09:23:43.318Z,78.90
2018-10-11T09:26:10.827Z,80.00
2018-10-11T09:28:38.335Z,78.40
2018-10-11T09:31:06.120Z,79.10
2018-10-11T09:33:33.616Z,79.60
2018-10-11T09:36:01.127Z,79.00
2018-10-11T09:38:28.611Z,79.70
2018-10-11T09:40:56.101Z,79.10
2018-10-11T09:43:23.628Z,78.90
2018-10-11T09:45:51.134Z,78.90
2018-10-11T09:48:18.655Z,78.80
2018-10-11T09:50:46.170Z,78.70
2018-10-11T09:53:13.667Z,79.80
2018-10-11T09:55:41.265Z,79.30
2018-10-11T09:58:08.708Z,78.50
2018-10-11T10:00:41.698Z,78.30
2018-10-11T10:03:09.212Z,78.20
2018-10-11T10:05:36.712Z,77.80
2018-10-11T10:08:04.195Z,77.70
2018-10-11T10:10:31.700Z,76.40
2018-10-11T10:12:59.207Z,76.90
2018-10-11T10:15:26.698Z,76.50
2018-10-11T10:17:54.202Z,76.10
2018-10-11T10:20:21.713Z,76.10
2018-10-11T10:22:49.207Z,75.40
2018-10-11T10:25:16.726Z,74.70
2018-10-11T10:27:44.206Z,75.30
2018-10-11T10:30:17.371Z,75.60
2018-10-11T10:32:44.893Z,75.00
2018-10-11T10:35:12.407Z,75.30
2018-10-11T10:37:39.935Z,74.70
2018-10-11T10:40:07.514Z,74.60
2018-10-11T10:42:34.960Z,74.80
2018-10-11T10:45:02.483Z,74.00
2018-10-11T10:47:29.991Z,73.60
2018-10-11T10:49:57.503Z,73.90
2018-10-11T10:52:25.012Z,74.00
2018-10-11T10:54:52.503Z,74.60
2018-10-11T10:57:20.004Z,74.40
2018-10-11T10:59:47.555Z,74.80
2018-10-11T11:02:15.039Z,74.60
2018-10-11T11:04:42.543Z,74.20
2018-10-11T11:07:10.041Z,74.30
2018-10-11T11:09:37.532Z,74.00
2018-10-11T11:12:05.066Z,74.60
2018-10-11T11:14:32.547Z,74.20
2018-10-11T11:17:00.060Z,74.00
2018-10-11T11:19:27.568Z,74.30
2018-10-11T11:21:55.028Z,74.10
2018-10-11T11:24:22.505Z,73.90
2018-10-11T11:26:50.033Z,74.30
2018-10-11T11:29:17.539Z,74.20
2018-10-11T11:31:45.055Z,74.30
2018-10-11T11:34:12.583Z,73.30
2018-10-11T11:36:40.103Z,73.40
2018-10-11T11:39:08.357Z,73.60
2018-10-11T11:41:35.941Z,73.60
2018-10-11T11:44:03.454Z,73.20
2018-10-11T11:46:30.962Z,73.50
2018-10-11T11:48:58.472Z,73.30
2018-10-11T11:51:25.968Z,72.80
2018-10-11T11:53:53.444Z,72.70
2018-10-11T11:56:20.967Z,71.50
2018-10-11T11:58:48.495Z,72.00
2018-10-11T12:01:16.020Z,71.80
2018-10-11T12:03:43.554Z,72.50
2018-10-11T12:06:11.037Z,72.00
2018-10-11T12:08:39.376Z,71.90
2018-10-11T12:11:07.438Z,71.80
2018-10-11T12:13:34.923Z,71.40
2018-10-11T12:16:02.433Z,71.20
2018-10-11T12:18:29.952Z,70.90
2018-10-11T12:20:57.438Z,70.90
2018-10-11T12:23:24.944Z,70.90
2018-10-11T12:25:52.564Z,70.80
2018-10-11T12:28:20.135Z,71.00
2018-10-11T12:30:47.578Z,71.10
2018-10-11T12:33:15.074Z,70.60
2018-10-11T12:35:42.563Z,70.50
2018-10-11T12:38:10.064Z,70.30
2018-10-11T12:40:37.568Z,70.50
2018-10-11T12:43:05.085Z,71.00
2018-10-11T12:45:32.592Z,70.40
2018-10-11T12:48:00.123Z,69.70
2018-10-11T12:50:27.628Z,69.40
2018-10-11T12:52:55.128Z,70.00
2018-10-11T12:55:22.624Z,68.90
2018-10-11T12:57:50.154Z,69.50
2018-10-11T13:00:17.783Z,68.90
2018-10-11T13:02:45.302Z,69.30
2018-10-11T13:05:12.816Z,68.50
2018-10-11T13:07:40.787Z,68.30
2018-10-11T13:10:08.319Z,67.80
2018-10-11T13:12:35.825Z,67.20
2018-10-11T13:15:03.319Z,68.90
2018-10-11T13:17:37.007Z,66.90
2018-10-11T13:19:58.418Z,67.50
2018-10-11T13:22:25.927Z,66.40
2018-10-11T13:24:53.456Z,66.00
2018-10-11T13:27:20.948Z,66.00
2018-10-11T13:29:48.456Z,67.40
2018-10-11T13:32:16.004Z,67.40
2018-10-11T13:34:43.517Z,66.70
2018-10-11T13:37:11.004Z,67.50
2018-10-11T13:39:38.543Z,65.60
2018-10-11T13:42:06.343Z,66.70
2018-10-11T13:44:33.828Z,66.90
2018-10-11T13:47:02.810Z,67.60
2018-10-11T13:49:30.341Z,65.70
2018-10-11T13:51:57.861Z,66.30
2018-10-11T13:54:25.377Z,65.90
2018-10-11T13:56:58.015Z,66.40
2018-10-11T13:59:20.463Z,64.30
2018-10-11T14:01:47.955Z,65.90
2018-10-11T14:04:15.874Z,65.80
2018-10-11T14:06:43.380Z,65.10
2018-10-11T14:09:12.391Z,65.90
2018-10-11T14:11:40.295Z,64.40
2018-10-11T14:14:07.886Z,65.90
2018-10-11T14:16:35.379Z,64.20
2018-10-11T14:19:02.860Z,65.00
2018-10-11T14:21:30.395Z,64.60
2018-10-11T14:23:58.122Z,64.30
2018-10-11T14:26:25.619Z,64.00
2018-10-11T14:28:53.268Z,64.70
2018-10-11T14:31:21.389Z,64.80
2018-10-11T14:33:48.887Z,65.50
2018-10-11T14:36:16.976Z,65.20
2018-10-11T14:38:44.464Z,64.90
2018-10-11T14:41:11.975Z,64.50
2018-10-11T14:43:39.553Z,65.70
2018-10-11T14:46:07.295Z,63.70
2018-10-11T14:48:34.916Z,65.10
2018-10-11T14:51:02.532Z,64.50
2018-10-11T14:53:29.978Z,63.10
2018-10-11T14:55:57.491Z,64.70
2018-10-11T14:58:25.044Z,64.80
2018-10-11T15:00:52.545Z,63.20
2018-10-11T15:03:20.156Z,64.00
2018-10-11T15:05:47.720Z,62.40
2018-10-11T15:08:15.245Z,63.10
2018-10-11T15:10:42.785Z,64.00
2018-10-11T15:13:10.349Z,64.60
2018-10-11T15:15:37.900Z,63.10
2018-10-11T15:18:05.863Z,62.80
2018-10-11T15:20:33.380Z,62.40
2018-10-11T15:23:00.880Z,63.10
2018-10-11T15:25:28.379Z,61.40
2018-10-11T15:27:55.876Z,62.90
2018-10-11T15:30:23.406Z,61.90
2018-10-11T15:32:50.929Z,61.80
2018-10-11T15:35:18.434Z,62.00
2018-10-11T15:37:45.961Z,62.30
2018-10-11T15:40:13.448Z,63.40
2018-10-11T15:42:41.059Z,61.00
2018-10-11T15:45:08.567Z,62.00
2018-10-11T15:47:36.075Z,62.10
2018-10-11T15:50:03.608Z,62.70
2018-10-11T15:52:31.120Z,63.70
2018-10-11T15:54:58.659Z,63.20
2018-10-11T15:57:26.187Z,62.70
2018-10-11T15:59:54.204Z,61.90
2018-10-11T16:02:21.736Z,61.00
2018-10-11T16:04:49.292Z,62.50
2018-10-11T16:07:16.777Z,61.50
2018-10-11T16:09:44.315Z,61.90
2018-10-11T16:12:11.846Z,62.90
2018-10-11T16:14:39.372Z,62.90
2018-10-11T16:17:06.852Z,61.20
2018-10-11T16:19:34.384Z,62.80
2018-10-11T16:22:02.096Z,63.20
2018-10-11T16:24:29.652Z,62.20
2018-10-11T16:26:57.187Z,61.90
2018-10-11T16:29:24.708Z,63.00
2018-10-11T16:31:52.228Z,63.80
2018-10-11T16:34:19.728Z,62.30
2018-10-11T16:36:47.255Z,62.50
2018-10-11T16:39:14.817Z,63.00
2018-10-11T16:41:42.304Z,63.30
2018-10-11T16:44:09.863Z,64.10
2018-10-11T16:46:37.379Z,64.30
2018-10-11T16:49:04.961Z,64.20
2018-10-11T16:51:32.507Z,64.70
2018-10-11T16:54:00.091Z,64.10
2018-10-11T16:56:27.648Z,63.10
2018-10-11T16:58:55.187Z,64.60
2018-10-11T17:01:22.696Z,64.40
2018-10-11T17:03:50.228Z,65.10
2018-10-11T17:06:17.769Z,65.30
2018-10-11T17:08:45.283Z,65.10
2018-10-11T17:11:12.818Z,65.00
2018-10-11T17:13:40.379Z,65.50
2018-10-11T17:16:07.875Z,65.00
2018-10-11T17:18:35.443Z,65.50
2018-10-11T17:21:03.001Z,65.60
2018-10-11T17:23:30.488Z,66.00
2018-10-11T17:25:57.991Z,65.70
2018-10-11T17:28:25.495Z,66.20
2018-10-11T17:30:53.001Z,66.30
2018-10-11T17:33:20.813Z,66.40
2018-10-11T17:35:48.370Z,66.20
2018-10-11T17:38:15.884Z,66.50
2018-10-11T17:40:43.398Z,66.60
2018-10-11T17:43:10.900Z,66.60
2018-10-11T17:45:38.492Z,66.20
2018-10-11T17:48:05.996Z,66.80
2018-10-11T17:50:33.502Z,66.40
2018-10-11T17:53:01.087Z,66.90
2018-10-11T17:55:28.632Z,66.60
2018-10-11T17:57:56.150Z,66.50
2018-10-11T18:00:24.083Z,66.90
2018-10-11T18:02:51.614Z,66.80
2018-10-11T18:05:19.153Z,66.90
2018-10-11T18:07:46.671Z,66.80
2018-10-11T18:10:14.180Z,66.90
2018-10-11T18:12:41.670Z,67.00
2018-10-11T18:15:09.188Z,66.90
2018-10-11T18:17:36.712Z,66.90
2018-10-11T18:20:04.429Z,66.90
2018-10-11T18:22:32.035Z,67.10
2018-10-11T18:24:59.548Z,67.00
2018-10-11T18:27:27.079Z,67.40
2018-10-11T18:29:54.620Z,67.20
2018-10-11T18:32:22.140Z,67.30
2018-10-11T18:34:49.632Z,67.30
2018-10-11T18:37:17.186Z,67.30
2018-10-11T18:39:44.679Z,67.60
2018-10-11T18:42:12.189Z,67.60
2018-10-11T18:44:39.728Z,67.50
2018-10-11T18:47:07.279Z,68.40
2018-10-11T18:49:34.803Z,67.50
2018-10-11T18:52:02.328Z,67.80
2018-10-11T18:54:29.824Z,67.80
2018-10-11T18:56:57.347Z,67.10
2018-10-11T18:59:24.868Z,67.90
2018-10-11T19:01:52.407Z,68.10
2018-10-11T19:04:19.915Z,67.90
2018-10-11T19:06:47.432Z,67.90
2018-10-11T19:09:14.925Z,67.90
2018-10-11T19:11:42.451Z,68.20
2018-10-11T19:14:09.960Z,68.30
2018-10-11T19:16:37.496Z,68.20
2018-10-11T19:19:05.020Z,69.30
2018-10-11T19:21:32.558Z,68.50
2018-10-11T19:24:00.088Z,68.50
2018-10-11T19:26:27.785Z,68.60
2018-10-11T19:28:55.336Z,68.50
2018-10-11T19:31:22.884Z,68.50
2018-10-11T19:33:50.380Z,68.60
2018-10-11T19:36:17.902Z,68.70
2018-10-11T19:38:45.406Z,68.60
2018-10-11T19:41:12.890Z,68.70
2018-10-11T19:43:40.431Z,68.80
2018-10-11T19:46:08.165Z,68.90
2018-10-11T19:48:35.676Z,68.90
2018-10-11T19:51:03.221Z,69.00
2018-10-11T19:53:30.752Z,69.30
2018-10-11T19:55:58.312Z,69.10
2018-10-11T19:58:25.908Z,69.10
2018-10-11T20:00:53.431Z,69.40
2018-10-11T20:03:20.936Z,69.30
2018-10-11T20:05:48.532Z,69.30
2018-10-11T20:08:16.212Z,69.40
2018-10-11T20:10:43.568Z,69.40
2018-10-11T20:13:11.128Z,69.50
2018-10-11T20:15:38.661Z,69.40
2018-10-11T20:18:06.180Z,69.50
2018-10-11T20:20:33.778Z,69.60
2018-10-11T20:23:01.267Z,69.50
2018-10-11T20:25:28.742Z,69.80
2018-10-11T20:27:56.287Z,69.80
2018-10-11T20:30:23.804Z,69.60
2018-10-11T20:32:51.327Z,69.80
2018-10-11T20:35:18.840Z,70.00
2018-10-11T20:37:46.384Z,70.00
2018-10-11T20:40:13.890Z,70.00
2018-10-11T20:42:41.411Z,70.00
2018-10-11T20:45:08.939Z,69.90
2018-10-11T20:47:36.470Z,70.80
2018-10-11T20:50:04.591Z,69.70
2018-10-11T20:52:32.098Z,69.90
2018-10-11T20:54:59.598Z,70.00
2018-10-11T20:57:27.207Z,70.00
2018-10-11T20:59:54.652Z,69.80
2018-10-11T21:02:22.160Z,69.90
2018-10-11T21:04:49.696Z,70.10
2018-10-11T21:07:17.216Z,70.10
2018-10-11T21:09:44.739Z,70.00
2018-10-11T21:12:12.375Z,69.90
2018-10-11T21:14:40.231Z,69.80
2018-10-11T21:17:07.760Z,69.70
2018-10-11T21:19:35.263Z,69.70
2018-10-11T21:22:02.776Z,69.60
2018-10-11T21:24:30.311Z,69.50
2018-10-11T21:26:57.856Z,69.60
2018-10-11T21:29:25.372Z,69.40
2018-10-11T21:31:52.855Z,69.40
2018-10-11T21:34:20.465Z,69.30
2018-10-11T21:36:47.952Z,69.40
2018-10-11T21:39:15.465Z,69.30
2018-10-11T21:41:43.023Z,69.20
2018-10-11T21:44:10.604Z,69.30
2018-10-11T21:46:38.523Z,69.10
2018-10-11T21:49:06.117Z,69.10
2018-10-11T21:51:33.772Z,69.10
2018-10-11T21:54:01.263Z,69.30
2018-10-11T21:56:28.764Z,69.30
2018-10-11T21:58:56.236Z,69.40
2018-10-11T22:01:24.600Z,69.70
2018-10-11T22:03:52.592Z,69.60
2018-10-11T22:06:20.095Z,69.80
2018-10-11T22:08:47.595Z,69.70
2018-10-11T22:11:15.119Z,70.20
2018-10-11T22:13:42.691Z,72.20
2018-10-11T22:16:10.590Z,71.70
2018-10-11T22:18:38.892Z,72.50
2018-10-11T22:21:06.925Z,72.90
2018-10-11T22:23:34.402Z,72.10
2018-10-11T22:26:01.987Z,72.10
2018-10-11T22:28:29.487Z,72.80
2018-10-11T22:30:57.024Z,73.60
2018-10-11T22:33:25.143Z,74.10
2018-10-11T22:35:52.750Z,73.30
2018-10-11T22:38:21.148Z,73.00
2018-10-11T22:40:48.725Z,73.70
2018-10-11T22:43:16.329Z,73.70
2018-10-11T22:45:43.855Z,73.60
2018-10-11T22:48:11.499Z,74.30
2018-10-11T22:50:39.278Z,73.50
2018-10-11T22:53:06.828Z,74.00
2018-10-11T22:55:34.431Z,76.40
2018-10-11T22:58:02.164Z,79.30
2018-10-11T23:00:30.238Z,77.90
2018-10-11T23:02:57.731Z,80.10
2018-10-11T23:05:25.233Z,78.70
2018-10-11T23:07:57.194Z,79.90
2018-10-11T23:10:24.779Z,78.30
2018-10-11T23:12:52.429Z,80.40
2018-10-11T23:15:20.269Z,79.90
2018-10-11T23:17:47.767Z,79.30
2018-10-11T23:20:15.243Z,80.60
2018-10-11T23:22:42.779Z,80.00
2018-10-11T23:25:10.861Z,79.80
2018-10-11T23:27:38.839Z,80.50
2018-10-11T23:30:06.484Z,80.00
2018-10-11T23:32:34.019Z,80.10
2018-10-11T23:35:01.611Z,80.40
2018-10-11T23:37:29.120Z,80.90
2018-10-11T23:39:56.624Z,79.20
2018-10-11T23:42:24.211Z,79.10
2018-10-11T23:44:51.724Z,79.20
2018-10-11T23:47:19.231Z,78.90
2018-10-11T23:49:46.740Z,80.10
2018-10-11T23:52:14.262Z,80.10
2018-10-11T23:54:41.761Z,79.70
2018-10-11T23:57:09.846Z,79.10
2018-10-11T23:59:37.392Z,79.50
